createdAt,value
2024-03-07T00:00:56.151Z,41.57
2024-03-07T00:03:25.473Z,39.43
2024-03-07T00:05:53.383Z,38.43
2024-03-07T00:09:17.403Z,37.57
2024-03-07T00:11:46.662Z,35.30
2024-03-07T00:14:28.313Z,34.50
2024-03-07T00:16:56.725Z,35.10
2024-03-07T00:19:26.981Z,34.63
2024-03-07T00:29:31.385Z,32.17
2024-03-07T00:31:59.781Z,31.33
2024-03-07T00:34:27.780Z,33.27
2024-03-07T00:36:57.302Z,31.37
2024-03-07T00:39:25.104Z,30.27
2024-03-07T00:49:22.123Z,28.23
2024-03-07T00:51:51.218Z,27.93
2024-03-07T00:54:18.850Z,29.00
2024-03-07T00:56:46.682Z,29.00
2024-03-07T00:59:15.612Z,29.80
2024-03-07T01:01:43.493Z,29.53
2024-03-07T01:04:11.464Z,27.40
2024-03-07T01:06:41.839Z,27.80
2024-03-07T01:09:15.022Z,28.47
2024-03-07T01:11:43.242Z,29.57
2024-03-07T01:14:11.139Z,27.57
2024-03-07T01:16:38.907Z,29.80
2024-03-07T01:19:07.272Z,29.37
2024-03-07T01:21:37.907Z,29.37
2024-03-07T01:24:08.259Z,28.03
2024-03-07T01:26:36.051Z,30.87
2024-03-07T01:29:03.826Z,29.43
2024-03-07T01:31:31.529Z,27.30
2024-03-07T01:33:59.134Z,27.60
2024-03-07T01:36:26.803Z,30.17
2024-03-07T01:38:54.625Z,28.43
2024-03-07T01:41:23.807Z,29.13
2024-03-07T01:43:51.430Z,30.00
2024-03-07T01:46:20.678Z,30.17
2024-03-07T01:48:49.217Z,30.90
2024-03-07T01:51:17.470Z,30.80
2024-03-07T01:53:46.778Z,29.23
2024-03-07T01:56:14.712Z,30.70
2024-03-07T01:58:45.057Z,28.00
2024-03-07T02:01:15.639Z,27.37
2024-03-07T02:03:43.953Z,26.20
2024-03-07T02:06:13.146Z,26.00
2024-03-07T02:08:40.970Z,26.67
2024-03-07T02:11:10.781Z,26.80
2024-03-07T02:13:38.674Z,25.73
2024-03-07T02:16:08.701Z,26.47
2024-03-07T02:18:39.269Z,25.90
2024-03-07T02:21:10.087Z,27.87
2024-03-07T02:23:38.125Z,27.30
2024-03-07T02:26:06.075Z,26.50
2024-03-07T02:28:33.700Z,26.93
2024-03-07T02:31:01.434Z,26.37
2024-03-07T02:33:29.086Z,25.80
2024-03-07T02:35:56.820Z,25.47
2024-03-07T02:38:25.845Z,25.00
2024-03-07T02:40:53.924Z,24.53
2024-03-07T02:43:22.415Z,24.00
2024-03-07T02:45:51.410Z,24.17
2024-03-07T02:48:19.760Z,24.43
2024-03-07T02:50:48.717Z,23.10
2024-03-07T02:53:16.584Z,23.87
2024-03-07T02:55:45.743Z,24.73
2024-03-07T02:58:13.489Z,24.23
2024-03-07T03:00:41.085Z,23.57
2024-03-07T03:03:08.787Z,24.20
2024-03-07T03:05:36.518Z,24.50
2024-03-07T03:08:08.047Z,23.33
2024-03-07T03:10:35.786Z,22.90
2024-03-07T03:13:05.313Z,22.43
2024-03-07T03:15:33.199Z,24.80
2024-03-07T03:18:02.108Z,24.47
2024-03-07T03:20:35.254Z,22.60
2024-03-07T03:25:36.853Z,23.60
2024-03-07T03:28:07.520Z,24.00
2024-03-07T03:30:35.298Z,22.33
2024-03-07T03:33:03.058Z,24.20
2024-03-07T03:35:30.882Z,24.20
2024-03-07T03:37:58.540Z,23.63
2024-03-07T03:40:26.155Z,23.13
2024-03-07T03:42:53.978Z,22.10
2024-03-07T03:45:23.259Z,20.43
2024-03-07T03:47:51.020Z,20.90
2024-03-07T03:50:19.082Z,22.57
2024-03-07T03:52:46.841Z,21.40
2024-03-07T03:55:15.583Z,19.97
2024-03-07T03:57:44.537Z,21.93
2024-03-07T04:00:14.600Z,20.83
2024-03-07T04:02:44.805Z,22.23
2024-03-07T04:05:14.580Z,21.40
2024-03-07T04:07:42.949Z,20.53
2024-03-07T04:10:12.063Z,20.40
2024-03-07T04:12:41.181Z,22.87
2024-03-07T04:15:10.473Z,22.17
2024-03-07T04:17:38.770Z,22.30
2024-03-07T04:20:11.305Z,22.80
2024-03-07T04:22:40.357Z,22.33
2024-03-07T04:25:09.233Z,25.57
2024-03-07T04:27:38.066Z,23.07
2024-03-07T04:30:07.257Z,21.80
2024-03-07T04:32:35.835Z,19.60
2024-03-07T04:35:05.092Z,20.30
2024-03-07T04:37:37.304Z,20.50
2024-03-07T04:40:12.142Z,21.90
2024-03-07T04:42:39.716Z,20.63
2024-03-07T04:45:08.328Z,19.73
2024-03-07T04:47:36.092Z,19.33
2024-03-07T04:50:03.999Z,20.90
2024-03-07T04:52:31.726Z,20.30
2024-03-07T04:55:00.818Z,18.20
2024-03-07T04:57:28.940Z,20.67
2024-03-07T04:59:56.722Z,20.70
2024-03-07T05:02:25.356Z,21.13
2024-03-07T05:04:53.061Z,23.57
2024-03-07T05:07:20.920Z,24.50
2024-03-07T05:09:49.809Z,25.40
2024-03-07T05:12:19.024Z,24.30
2024-03-07T05:14:46.930Z,21.60
2024-03-07T05:17:14.887Z,21.57
2024-03-07T05:19:46.431Z,22.60
2024-03-07T05:22:17.037Z,20.80
2024-03-07T05:24:44.891Z,21.13
2024-03-07T05:27:13.732Z,19.37
2024-03-07T05:29:43.340Z,19.10
2024-03-07T05:32:24.609Z,20.47
2024-03-07T05:34:52.677Z,20.40
2024-03-07T05:37:21.212Z,19.57
2024-03-07T05:39:49.235Z,18.83
2024-03-07T05:42:16.935Z,18.80
2024-03-07T05:44:46.609Z,19.20
2024-03-07T05:47:15.532Z,22.17
2024-03-07T05:49:43.222Z,20.27
2024-03-07T05:52:11.251Z,20.30
2024-03-07T05:54:38.872Z,22.17
2024-03-07T05:57:08.192Z,22.00
2024-03-07T05:59:36.004Z,22.13
2024-03-07T06:02:06.125Z,21.17
2024-03-07T06:04:35.176Z,19.17
2024-03-07T06:07:03.157Z,21.60
2024-03-07T06:09:30.832Z,22.40
2024-03-07T06:11:58.711Z,20.97
2024-03-07T06:14:27.079Z,20.57
2024-03-07T06:16:54.783Z,19.87
2024-03-07T06:19:23.805Z,19.77
2024-03-07T06:21:53.588Z,20.80
2024-03-07T06:24:23.354Z,21.30
2024-03-07T06:27:01.150Z,21.70
2024-03-07T06:29:29.945Z,21.20
2024-03-07T06:31:57.585Z,20.30
2024-03-07T06:34:26.902Z,19.33
2024-03-07T06:36:56.446Z,17.63
2024-03-07T06:39:24.181Z,18.53
2024-03-07T06:41:51.943Z,17.80
2024-03-07T06:44:24.442Z,18.63
2024-03-07T06:46:52.384Z,19.40
2024-03-07T06:49:21.983Z,18.70
2024-03-07T06:51:51.098Z,18.57
2024-03-07T06:54:18.700Z,19.73
2024-03-07T06:56:46.336Z,18.23
2024-03-07T06:59:15.475Z,19.27
2024-03-07T07:01:44.274Z,18.50
2024-03-07T07:04:14.205Z,20.57
2024-03-07T07:06:43.959Z,19.97
2024-03-07T07:09:13.163Z,20.70
2024-03-07T07:11:41.523Z,19.50
2024-03-07T07:14:09.196Z,20.83
2024-03-07T07:16:37.397Z,19.80
2024-03-07T07:19:05.050Z,19.03
2024-03-07T07:21:32.675Z,19.80
2024-03-07T07:24:00.475Z,19.80
2024-03-07T07:26:29.616Z,18.60
2024-03-07T07:28:58.034Z,19.90
2024-03-07T07:31:26.349Z,19.93
2024-03-07T07:33:54.100Z,19.00
2024-03-07T07:36:21.987Z,19.10
2024-03-07T07:38:49.677Z,19.90
2024-03-07T07:41:17.438Z,20.03
2024-03-07T07:43:46.404Z,18.60
2024-03-07T07:46:14.112Z,19.97
2024-03-07T07:48:42.856Z,20.30
2024-03-07T07:51:10.761Z,19.70
2024-03-07T07:53:38.615Z,19.80
2024-03-07T07:56:06.882Z,19.13
2024-03-07T07:58:34.527Z,19.20
2024-03-07T08:01:04.105Z,18.00
2024-03-07T08:03:34.038Z,17.27
2024-03-07T08:06:01.788Z,16.73
2024-03-07T08:08:29.832Z,18.20
2024-03-07T08:10:57.731Z,17.70
2024-03-07T08:13:26.218Z,18.00
2024-03-07T08:15:55.016Z,17.97
2024-03-07T08:18:24.274Z,20.33
2024-03-07T08:20:56.183Z,20.97
2024-03-07T08:23:26.438Z,22.60
2024-03-07T08:25:54.301Z,21.97
2024-03-07T08:28:21.918Z,22.10
2024-03-07T08:30:49.535Z,22.00
2024-03-07T08:33:17.658Z,21.57
2024-03-07T08:35:46.733Z,21.80
2024-03-07T08:38:14.896Z,22.30
2024-03-07T08:40:43.506Z,22.60
2024-03-07T08:43:11.312Z,23.20
2024-03-07T08:45:39.405Z,22.70
2024-03-07T08:48:08.963Z,23.77
2024-03-07T08:50:38.468Z,21.10
2024-03-07T08:53:08.507Z,23.53
2024-03-07T08:55:38.188Z,22.13
2024-03-07T08:58:07.433Z,23.13
2024-03-07T09:00:38.621Z,23.30
2024-03-07T09:03:10.993Z,23.37
2024-03-07T09:05:40.128Z,22.70
2024-03-07T09:08:09.636Z,22.47
2024-03-07T09:10:37.658Z,21.70
2024-03-07T09:13:07.230Z,24.10
2024-03-07T09:15:34.934Z,22.87
2024-03-07T09:18:02.562Z,22.30
2024-03-07T09:20:32.220Z,24.73
2024-03-07T09:23:01.244Z,23.50
2024-03-07T09:25:34.016Z,22.83
2024-03-07T09:28:02.226Z,22.60
2024-03-07T09:30:31.563Z,24.33
2024-03-07T09:32:59.584Z,24.37
2024-03-07T09:35:27.878Z,25.83
2024-03-07T09:37:56.051Z,22.67
2024-03-07T09:40:27.581Z,24.67
2024-03-07T09:42:59.839Z,23.80
2024-03-07T09:45:32.611Z,24.30
2024-03-07T09:48:01.226Z,25.50
2024-03-07T09:50:32.577Z,24.90
2024-03-07T09:53:01.561Z,25.33
2024-03-07T09:55:29.543Z,24.70
2024-03-07T09:58:02.489Z,26.33
2024-03-07T10:00:31.588Z,26.33
2024-03-07T10:03:03.447Z,27.30
2024-03-07T10:05:33.375Z,26.70
2024-03-07T10:08:02.348Z,28.80
2024-03-07T10:10:31.360Z,27.80
2024-03-07T10:13:01.319Z,25.40
2024-03-07T10:15:30.731Z,25.73
2024-03-07T10:17:58.845Z,25.00
2024-03-07T10:20:26.679Z,27.33
2024-03-07T10:22:54.462Z,26.70
2024-03-07T10:25:25.447Z,26.33
2024-03-07T10:27:53.793Z,25.00
2024-03-07T10:30:23.636Z,26.67
2024-03-07T10:32:56.120Z,28.57
2024-03-07T10:35:25.692Z,29.20
2024-03-07T10:37:55.083Z,27.27
2024-03-07T10:40:23.790Z,24.80
2024-03-07T10:42:54.078Z,26.53
2024-03-07T10:45:24.731Z,24.70
2024-03-07T10:47:56.889Z,25.20
2024-03-07T10:50:41.805Z,23.63
2024-03-07T10:53:15.555Z,26.37
2024-03-07T10:55:55.198Z,26.37
2024-03-07T10:58:39.000Z,23.90
2024-03-07T11:01:12.170Z,23.60
2024-03-07T11:03:40.518Z,22.10
2024-03-07T11:06:12.444Z,23.40
2024-03-07T11:08:40.604Z,23.57
2024-03-07T11:11:08.659Z,25.13
2024-03-07T11:13:38.564Z,25.40
2024-03-07T11:16:10.898Z,26.20
2024-03-07T11:18:38.625Z,26.53
2024-03-07T11:21:09.110Z,25.80
2024-03-07T11:23:42.317Z,22.93
2024-03-07T11:26:12.657Z,24.17
2024-03-07T11:28:42.793Z,24.57
2024-03-07T11:31:14.681Z,24.00
2024-03-07T11:33:42.693Z,25.27
2024-03-07T11:36:13.147Z,24.90
2024-03-07T11:38:46.297Z,24.60
2024-03-07T11:41:14.827Z,22.90
2024-03-07T11:43:44.496Z,22.60
2024-03-07T11:46:17.910Z,22.43
2024-03-07T11:48:46.457Z,22.73
2024-03-07T11:51:16.634Z,22.10
2024-03-07T11:53:48.896Z,20.83
2024-03-07T11:56:18.660Z,21.10
2024-03-07T11:58:53.455Z,22.30
2024-03-07T12:01:26.373Z,21.63
2024-03-07T12:03:57.375Z,21.83
2024-03-07T12:06:25.548Z,23.23
2024-03-07T12:08:53.869Z,20.87
2024-03-07T12:11:22.369Z,21.47
2024-03-07T12:13:52.295Z,22.17
2024-03-07T12:16:19.981Z,22.20
2024-03-07T12:18:49.632Z,22.37
2024-03-07T12:21:18.372Z,20.00
2024-03-07T12:23:47.003Z,21.40
2024-03-07T12:26:18.050Z,21.50
2024-03-07T12:28:47.727Z,21.57
2024-03-07T12:31:18.006Z,21.03
2024-03-07T12:33:52.501Z,21.50
2024-03-07T12:36:23.840Z,22.30
2024-03-07T12:38:55.567Z,21.10
2024-03-07T12:41:24.946Z,21.40
2024-03-07T12:43:53.278Z,22.60
2024-03-07T12:46:21.003Z,21.63
2024-03-07T12:48:50.706Z,23.33
2024-03-07T12:51:20.573Z,23.00
2024-03-07T12:53:50.586Z,23.13
2024-03-07T12:56:18.863Z,21.87
2024-03-07T12:58:48.042Z,22.23
2024-03-07T13:01:16.894Z,24.20
2024-03-07T13:03:46.136Z,22.23
2024-03-07T13:06:14.408Z,21.83
2024-03-07T13:08:42.551Z,22.13
2024-03-07T13:11:13.050Z,22.57
2024-03-07T13:13:40.851Z,21.47
2024-03-07T13:16:10.357Z,23.80
2024-03-07T13:18:38.881Z,23.33
2024-03-07T13:21:08.110Z,22.83
2024-03-07T13:23:37.477Z,22.10
2024-03-07T13:26:10.185Z,21.90
2024-03-07T13:28:42.913Z,22.90
2024-03-07T13:31:12.373Z,23.30
2024-03-07T13:33:40.192Z,23.23
2024-03-07T13:36:08.829Z,22.53
2024-03-07T13:38:37.242Z,23.23
2024-03-07T13:41:05.281Z,23.73
2024-03-07T13:43:35.055Z,23.63
2024-03-07T13:46:05.023Z,24.60
2024-03-07T13:48:34.287Z,21.70
2024-03-07T13:51:02.434Z,23.10
2024-03-07T13:53:34.859Z,23.47
2024-03-07T13:56:41.609Z,23.33
2024-03-07T13:59:28.461Z,22.63
2024-03-07T14:02:11.349Z,23.60
2024-03-07T14:05:14.978Z,24.60
2024-03-07T14:07:59.621Z,22.40
2024-03-07T14:11:05.171Z,23.87
2024-03-07T14:13:43.971Z,23.03
2024-03-07T14:16:43.788Z,23.10
2024-03-07T14:19:48.038Z,24.70
2024-03-07T14:22:42.085Z,23.80
2024-03-07T14:25:39.583Z,23.20
2024-03-07T14:28:31.568Z,23.87
2024-03-07T14:30:59.764Z,25.03
2024-03-07T14:33:31.883Z,24.00
2024-03-07T14:36:06.775Z,25.80
2024-03-07T14:38:51.115Z,24.80
2024-03-07T14:41:20.946Z,24.70
2024-03-07T14:43:48.743Z,22.80
2024-03-07T14:46:18.884Z,24.73
2024-03-07T14:48:46.805Z,24.50
2024-03-07T14:51:15.886Z,26.57
2024-03-07T14:53:45.884Z,24.67
2024-03-07T14:56:13.594Z,24.20
2024-03-07T14:58:42.357Z,27.30
2024-03-07T15:01:10.280Z,24.83
2024-03-07T15:03:39.427Z,25.47
2024-03-07T15:06:09.378Z,25.80
2024-03-07T15:08:37.594Z,25.47
2024-03-07T15:11:15.064Z,27.03
2024-03-07T15:13:44.211Z,26.33
2024-03-07T15:16:25.212Z,25.37
2024-03-07T15:18:57.701Z,26.40
2024-03-07T15:21:25.434Z,24.77
2024-03-07T15:23:54.209Z,26.63
2024-03-07T15:26:25.214Z,25.80
2024-03-07T15:28:53.446Z,28.73
2024-03-07T15:31:21.492Z,25.70
2024-03-07T15:33:50.412Z,26.07
2024-03-07T15:36:18.922Z,26.43
2024-03-07T15:38:47.641Z,28.03
2024-03-07T15:41:15.873Z,25.90
2024-03-07T15:43:45.664Z,23.97
2024-03-07T15:46:14.104Z,25.03
2024-03-07T15:48:42.780Z,26.10
2024-03-07T15:51:11.970Z,26.20
2024-03-07T15:53:39.890Z,26.47
2024-03-07T15:56:08.382Z,25.13
2024-03-07T15:58:36.123Z,26.63
2024-03-07T16:01:07.081Z,24.90
2024-03-07T16:03:34.864Z,26.13
2024-03-07T16:06:03.361Z,24.97
2024-03-07T16:08:31.081Z,23.93
2024-03-07T16:10:59.050Z,24.20
2024-03-07T16:13:26.823Z,27.13
2024-03-07T16:15:54.575Z,25.53
2024-03-07T16:18:27.041Z,25.03
2024-03-07T16:20:57.308Z,25.53
2024-03-07T16:23:25.430Z,24.70
2024-03-07T16:25:53.286Z,25.20
2024-03-07T16:28:27.511Z,29.10
2024-03-07T16:30:57.161Z,33.00
2024-03-07T16:36:01.630Z,26.50
2024-03-07T16:38:29.912Z,28.20
2024-03-07T16:40:57.550Z,26.50
2024-03-07T16:43:26.263Z,26.27
2024-03-07T16:45:55.082Z,27.83
2024-03-07T16:48:23.185Z,26.63
2024-03-07T16:50:53.068Z,27.53
2024-03-07T16:56:12.509Z,30.10
2024-03-07T16:58:39.156Z,30.43
2024-03-07T17:01:05.565Z,30.87
2024-03-07T17:03:31.904Z,31.50
2024-03-07T17:06:01.106Z,28.63
2024-03-07T17:08:27.763Z,28.60
2024-03-07T17:10:54.310Z,30.33
2024-03-07T17:13:23.449Z,28.87
2024-03-07T17:20:53.331Z,29.93
2024-03-07T17:23:19.705Z,28.60
2024-03-07T17:25:47.123Z,30.00
2024-03-07T17:28:13.597Z,29.43
2024-03-07T17:30:40.807Z,29.57
2024-03-07T17:33:08.402Z,29.50
2024-03-07T17:35:40.463Z,29.50
2024-03-07T17:43:05.385Z,27.40
2024-03-07T17:45:34.551Z,29.40
2024-03-07T17:48:01.883Z,30.00
2024-03-07T17:50:30.798Z,29.10
2024-03-07T17:53:01.180Z,30.17
2024-03-07T17:55:29.149Z,30.60
2024-03-07T17:57:58.186Z,30.40
2024-03-07T18:05:29.880Z,29.90
2024-03-07T18:08:02.502Z,29.93
2024-03-07T18:10:36.328Z,33.03
2024-03-07T18:13:03.840Z,29.90
2024-03-07T18:15:30.434Z,29.63
2024-03-07T18:17:59.720Z,29.23
2024-03-07T18:20:30.467Z,30.20
2024-03-07T18:22:59.240Z,29.33
2024-03-07T18:25:27.561Z,31.00
2024-03-07T18:27:58.186Z,29.40
2024-03-07T18:30:27.224Z,28.33
2024-03-07T18:32:55.029Z,29.20
2024-03-07T18:35:23.975Z,29.53
2024-03-07T18:37:53.405Z,29.77
2024-03-07T18:40:24.306Z,28.53
2024-03-07T18:42:53.629Z,29.70
2024-03-07T18:45:23.824Z,31.03
2024-03-07T18:47:53.726Z,27.30
2024-03-07T18:50:22.786Z,29.73
2024-03-07T18:52:51.890Z,31.17
2024-03-07T18:55:22.817Z,29.40
2024-03-07T18:57:51.820Z,30.27
2024-03-07T19:00:32.092Z,29.37
2024-03-07T19:03:01.562Z,29.10
2024-03-07T19:05:30.804Z,30.30
2024-03-07T19:07:59.278Z,30.30
2024-03-07T19:10:30.688Z,30.33
2024-03-07T19:13:00.313Z,30.30
2024-03-07T19:15:28.350Z,31.57
2024-03-07T19:17:56.505Z,33.27
2024-03-07T19:20:24.535Z,31.87
2024-03-07T19:22:53.631Z,32.77
2024-03-07T19:25:21.685Z,33.63
2024-03-07T19:27:51.862Z,32.80
2024-03-07T19:30:20.641Z,31.73
2024-03-07T19:32:49.777Z,32.70
2024-03-07T19:35:18.232Z,32.83
2024-03-07T19:37:46.792Z,30.00
2024-03-07T19:40:16.004Z,31.07
2024-03-07T19:42:44.183Z,30.87
2024-03-07T19:45:15.145Z,29.67
2024-03-07T19:47:43.564Z,30.83
2024-03-07T19:50:12.839Z,30.90
2024-03-07T19:52:40.752Z,31.67
2024-03-07T19:55:10.947Z,32.33
2024-03-07T19:57:39.967Z,30.80
2024-03-07T20:00:10.967Z,31.67
2024-03-07T20:02:40.785Z,29.50
2024-03-07T20:05:09.909Z,28.87
2024-03-07T20:07:38.332Z,29.83
2024-03-07T20:10:08.054Z,31.13
2024-03-07T20:12:37.780Z,29.87
2024-03-07T20:15:06.166Z,28.33
2024-03-07T20:17:34.313Z,27.77
2024-03-07T20:20:15.438Z,29.13
2024-03-07T20:22:44.632Z,29.57
2024-03-07T20:25:14.172Z,30.60
2024-03-07T20:27:42.958Z,30.47
2024-03-07T20:30:12.702Z,29.90
2024-03-07T20:32:40.591Z,30.40
2024-03-07T20:35:10.855Z,30.90
2024-03-07T20:37:39.066Z,30.60
2024-03-07T20:40:10.631Z,31.60
2024-03-07T20:42:39.751Z,36.03
2024-03-07T20:45:09.231Z,32.00
2024-03-07T20:47:37.854Z,32.30
2024-03-07T20:50:10.026Z,31.73
2024-03-07T20:52:41.360Z,30.50
2024-03-07T20:55:16.299Z,32.77
2024-03-07T20:57:47.130Z,32.00
2024-03-07T21:00:16.781Z,31.20
2024-03-07T21:02:44.846Z,30.90
2024-03-07T21:05:13.216Z,30.50
2024-03-07T21:07:43.255Z,29.27
2024-03-07T21:10:14.059Z,31.07
2024-03-07T21:12:42.090Z,30.23
2024-03-07T21:15:11.233Z,30.97
2024-03-07T21:17:39.412Z,31.20
2024-03-07T21:20:13.443Z,32.50
2024-03-07T21:22:43.233Z,33.77
2024-03-07T21:25:13.924Z,32.50
2024-03-07T21:27:42.276Z,32.90
2024-03-07T21:30:11.566Z,32.83
2024-03-07T21:32:39.605Z,33.00
2024-03-07T21:35:09.209Z,34.17
2024-03-07T21:37:37.074Z,31.87
2024-03-07T21:40:08.146Z,34.53
2024-03-07T21:42:36.091Z,33.70
2024-03-07T21:45:05.450Z,33.50
2024-03-07T21:47:36.677Z,34.40
2024-03-07T21:50:06.107Z,31.20
2024-03-07T21:52:34.925Z,36.90
2024-03-07T21:55:02.624Z,36.27
2024-03-07T21:57:31.661Z,35.17
2024-03-07T22:00:00.112Z,33.87
2024-03-07T22:02:28.515Z,33.53
2024-03-07T22:07:29.942Z,31.63
2024-03-07T22:10:00.257Z,31.83
2024-03-07T22:12:28.074Z,32.57
2024-03-07T22:14:57.353Z,30.70
2024-03-07T22:17:25.071Z,30.40
2024-03-07T22:19:53.275Z,30.97
2024-03-07T22:22:21.027Z,30.80
2024-03-07T22:24:50.240Z,31.90
2024-03-07T22:27:18.153Z,28.63
2024-03-07T22:29:46.145Z,30.50
2024-03-07T22:32:15.796Z,29.60
2024-03-07T22:34:43.715Z,27.97
2024-03-07T22:37:11.523Z,28.33
2024-03-07T22:39:39.371Z,25.13
2024-03-07T22:42:07.362Z,26.83
2024-03-07T22:44:35.154Z,28.17
2024-03-07T22:47:02.837Z,29.23
2024-03-07T22:49:31.883Z,31.10
2024-03-07T22:52:00.276Z,31.97
2024-03-07T22:54:28.496Z,30.77
2024-03-07T22:56:56.300Z,32.50
2024-03-07T22:59:24.091Z,31.00
2024-03-07T23:01:52.113Z,30.23
2024-03-07T23:04:20.030Z,31.67
2024-03-07T23:06:48.985Z,31.17
2024-03-07T23:09:18.303Z,29.03
2024-03-07T23:11:46.136Z,28.70
2024-03-07T23:14:13.904Z,31.90
2024-03-07T23:16:41.971Z,30.57
2024-03-07T23:19:12.917Z,28.80
2024-03-07T23:21:43.408Z,30.30
2024-03-07T23:24:15.896Z,29.47
2024-03-07T23:26:49.086Z,29.63
2024-03-07T23:29:17.456Z,29.43
2024-03-07T23:31:45.195Z,28.57
2024-03-07T23:34:15.825Z,27.03
2024-03-07T23:36:44.265Z,28.00
2024-03-07T23:39:13.846Z,25.90
2024-03-07T23:41:43.320Z,26.50
2024-03-07T23:44:11.155Z,23.73
2024-03-07T23:46:38.966Z,23.47
2024-03-07T23:49:06.952Z,23.80
2024-03-07T23:51:34.771Z,25.03
2024-03-07T23:54:02.880Z,23.67
2024-03-07T23:56:30.855Z,24.40
2024-03-07T23:58:59.919Z,24.37
